Time;durP1;ratioP1;P1;durP2;ratioP2;P2;SDS_P1;SDS_P2;PMS_P1;PMS_P2;Temp;Humidity;BMP_temperature;BMP_pressure;BME280_temperature;BME280_humidity;BME280_pressure;Samples;Min_cycle;Max_cycle;Signal;HPM_P1;HPM_P2
2021/05/04 00:02:54;;;;;;;10.03;4.37;;;;;;;5.33;53.20;97419.17;1637718;87;21609;-76
2021/05/04 00:05:21;;;;;;;8.63;3.17;;;;;;;5.30;54.59;97422.33;1683206;85;21114;-77
2021/05/04 00:07:49;;;;;;;4.15;2.83;;;;;;;5.28;53.58;97419.42;1671909;86;21175;-76
2021/05/04 00:10:16;;;;;;;7.40;3.10;;;;;;;5.24;56.28;97417.88;1636567;87;21163;-76
2021/05/04 00:12:43;;;;;;;5.37;3.35;;;;;;;5.24;54.67;97413.97;1631867;88;21180;-75
2021/05/04 00:15:12;;;;;;;6.22;3.75;;;;;;;5.21;54.27;97414.12;1622922;88;21143;-76
2021/05/04 00:17:39;;;;;;;5.12;2.98;;;;;;;5.18;55.04;97420.84;1627257;87;21545;-76
2021/05/04 00:20:09;;;;;;;4.15;2.70;;;;;;;5.15;54.83;97424.47;1649068;86;21155;-76
2021/05/04 00:22:36;;;;;;;4.83;2.70;;;;;;;5.11;54.25;97426.37;1649041;87;21609;-76
2021/05/04 00:25:05;;;;;;;3.90;2.67;;;;;;;5.09;54.10;97426.08;1648893;87;21139;-76
2021/05/04 00:27:32;;;;;;;7.58;3.25;;;;;;;5.06;54.61;97427.56;1649041;87;21167;-76
2021/05/04 00:29:59;;;;;;;4.72;2.92;;;;;;;5.02;57.14;97431.25;1648673;87;21269;-75
2021/05/04 00:32:26;;;;;;;5.28;3.40;;;;;;;5.01;54.25;97430.42;1622608;88;21612;-76
2021/05/04 00:34:56;;;;;;;7.25;2.83;;;;;;;4.98;54.36;97430.56;1622709;88;21159;-76
2021/05/04 00:37:23;;;;;;;4.95;3.10;;;;;;;4.97;54.30;97439.33;1627206;87;21167;-76
2021/05/04 00:39:50;;;;;;;4.55;2.80;;;;;;;4.94;54.31;97427.72;1649089;87;21199;-76
2021/05/04 00:42:23;;;;;;;5.47;2.83;;;;;;;4.92;54.38;97436.95;1631198;87;21155;-75
2021/05/04 00:44:47;;;;;;;5.87;3.08;;;;;;;4.89;54.33;97434.49;1622221;88;21211;-74
2021/05/04 00:47:14;;;;;;;4.40;2.67;;;;;;;4.88;54.20;97432.80;1622842;88;21223;-75
2021/05/04 00:49:43;;;;;;;5.00;2.30;;;;;;;4.85;54.23;97438.20;1622577;88;21175;-76
2021/05/04 00:52:10;;;;;;;8.30;2.85;;;;;;;4.84;54.22;97437.81;1622429;88;21182;-75
2021/05/04 00:54:41;;;;;;;4.47;2.70;;;;;;;4.82;54.24;97438.34;1641152;87;21135;-76
2021/05/04 00:57:08;;;;;;;4.83;2.85;;;;;;;4.81;54.26;97440.13;1648989;87;21205;-75
2021/05/04 00:59:37;;;;;;;9.65;2.47;;;;;;;4.81;54.19;97443.19;1627843;87;21232;-75
2021/05/04 01:02:05;;;;;;;5.22;3.40;;;;;;;4.80;54.02;97444.97;1618417;87;21207;-76
2021/05/04 01:04:34;;;;;;;4.70;2.80;;;;;;;4.80;54.14;97446.27;1663310;86;21192;-77
2021/05/04 01:07:01;;;;;;;3.40;2.40;;;;;;;4.80;54.12;97448.02;1663039;86;21179;-75
2021/05/04 01:09:29;;;;;;;4.72;2.47;;;;;;;4.81;54.25;97441.88;1651438;86;21180;-76
2021/05/04 01:11:56;;;;;;;6.33;2.50;;;;;;;4.82;54.05;97444.88;1632905;88;21171;-76
2021/05/04 01:14:24;;;;;;;7.22;2.60;;;;;;;4.80;54.03;97444.11;1651003;86;21144;-76
2021/05/04 01:16:54;;;;;;;6.35;2.77;;;;;;;4.79;54.31;97452.42;1663245;86;21149;-75
2021/05/04 01:19:22;;;;;;;6.55;2.40;;;;;;;4.77;54.30;97447.73;1650131;86;21177;-76
2021/05/04 01:21:51;;;;;;;3.90;2.67;;;;;;;4.78;54.39;97450.73;1633011;88;21611;-76
2021/05/04 01:24:19;;;;;;;3.60;2.70;;;;;;;4.77;54.36;97451.64;1651432;86;21162;-76
2021/05/04 01:26:48;;;;;;;7.78;2.77;;;;;;;4.76;54.14;97449.95;1663159;86;21196;-75
2021/05/04 01:29:15;;;;;;;6.97;2.47;;;;;;;4.74;54.19;97443.13;1647312;86;21567;-76
2021/05/04 01:31:43;;;;;;;3.40;2.45;;;;;;;4.72;54.29;97441.91;1633054;87;21659;-75
2021/05/04 01:34:12;;;;;;;3.33;2.52;;;;;;;4.72;54.14;97444.97;1649577;85;21201;-76
2021/05/04 01:36:40;;;;;;;3.90;2.22;;;;;;;4.69;54.08;97435.05;1633183;87;21217;-74
2021/05/04 01:39:10;;;;;;;4.40;2.60;;;;;;;4.68;54.06;97436.00;1646947;86;21206;-75
2021/05/04 01:41:39;;;;;;;6.30;2.92;;;;;;;4.69;54.12;97436.36;1633078;87;21203;-75
2021/05/04 01:44:08;;;;;;;3.12;2.40;;;;;;;4.71;54.46;97431.08;1646654;86;21182;-76
2021/05/04 01:46:37;;;;;;;4.53;2.55;;;;;;;4.74;54.75;97437.42;1646761;87;21177;-74
2021/05/04 01:49:07;;;;;;;4.20;2.50;;;;;;;4.75;54.35;97435.67;1662275;86;21187;-77
2021/05/04 01:51:37;;;;;;;4.58;3.30;;;;;;;4.74;54.00;97430.90;1663046;86;21189;-76
2021/05/04 01:54:05;;;;;;;3.27;2.02;;;;;;;4.73;54.01;97433.16;1655119;86;21555;-75
2021/05/04 01:56:32;;;;;;;5.10;2.35;;;;;;;4.72;54.04;97427.98;1646482;87;21173;-75
2021/05/04 02:01:37;;;;;;;2.95;2.10;;;;;;;4.73;54.25;97427.06;1824652;77;22763;-76
2021/05/04 02:04:05;;;;;;;6.97;2.47;;;;;;;4.66;54.09;97431.31;1798555;78;21612;-75
2021/05/04 02:06:32;;;;;;;4.47;2.37;;;;;;;4.64;54.12;97427.92;1828309;78;21577;-76
2021/05/04 02:08:59;;;;;;;5.40;2.37;;;;;;;4.64;54.01;97426.63;1810317;78;21139;-75
2021/05/04 02:11:27;;;;;;;4.55;2.50;;;;;;;4.64;54.19;97426.63;1795979;80;21186;-76
2021/05/04 02:13:54;;;;;;;10.43;3.05;;;;;;;4.63;54.07;97421.02;1796009;80;21111;-75
2021/05/04 02:16:21;;;;;;;4.30;2.58;;;;;;;4.61;55.69;97416.33;1795818;80;21140;-75
2021/05/04 02:18:49;;;;;;;8.23;2.33;;;;;;;4.60;54.35;97421.16;1796096;80;21167;-75
2021/05/04 02:21:17;;;;;;;4.80;2.33;;;;;;;4.58;54.25;97425.64;1795870;80;21155;-76
2021/05/04 02:23:46;;;;;;;3.40;2.30;;;;;;;4.53;54.21;97428.92;1795830;80;21143;-76
2021/05/04 02:26:16;;;;;;;5.08;2.30;;;;;;;4.48;54.26;97425.24;1796230;80;21124;-76
2021/05/04 02:28:44;;;;;;;3.95;2.58;;;;;;;4.44;54.70;97427.64;1796014;80;21154;-76
2021/05/04 02:31:13;;;;;;;5.05;2.20;;;;;;;4.39;54.67;97432.23;1796223;80;21119;-76
2021/05/04 02:33:42;;;;;;;7.80;2.40;;;;;;;4.31;54.92;97433.94;1797592;78;21139;-75
2021/05/04 02:36:11;;;;;;;6.87;2.80;;;;;;;4.24;55.48;97436.91;1828606;78;21577;-76
2021/05/04 02:38:39;;;;;;;6.75;2.22;;;;;;;4.16;55.65;97434.23;1828645;78;21269;-76
2021/05/04 02:41:08;;;;;;;3.27;2.25;;;;;;;4.11;55.77;97435.38;1828760;78;21269;-76
2021/05/04 02:43:36;;;;;;;8.95;2.50;;;;;;;4.06;55.98;97439.50;1828810;78;21293;-76
2021/05/04 02:46:06;;;;;;;5.05;2.22;;;;;;;3.99;55.66;97435.04;1828396;78;21554;-76
2021/05/04 02:48:42;;;;;;;3.90;2.20;;;;;;;3.95;55.98;97438.70;1806277;78;21135;-75
2021/05/04 02:51:11;;;;;;;3.77;2.47;;;;;;;3.92;56.41;97436.26;1796109;80;21135;-75
2021/05/04 02:53:40;;;;;;;4.22;2.30;;;;;;;3.92;56.50;97434.95;1795940;80;21135;-73
2021/05/04 02:56:08;;;;;;;5.95;2.22;;;;;;;3.94;56.81;97437.48;1795989;80;21155;-76
2021/05/04 02:58:35;;;;;;;3.67;2.45;;;;;;;3.98;56.95;97434.65;1787439;80;21589;-75
2021/05/04 03:01:04;;;;;;;5.08;2.10;;;;;;;4.01;57.41;97436.26;1767206;81;21164;-76
2021/05/04 03:03:35;;;;;;;7.20;2.30;;;;;;;4.05;57.34;97444.34;1769151;79;21541;-75
2021/05/04 03:06:04;;;;;;;5.10;2.27;;;;;;;4.09;57.38;97447.64;1778327;79;21273;-76
2021/05/04 03:08:33;;;;;;;3.67;2.02;;;;;;;4.15;57.66;97444.72;1785762;79;21134;-75
2021/05/04 03:11:02;;;;;;;6.40;2.75;;;;;;;4.20;57.44;97445.36;1806206;79;21178;-76
2021/05/04 03:13:32;;;;;;;4.78;2.10;;;;;;;4.27;57.34;97445.91;1771536;79;21139;-75
2021/05/04 03:16:01;;;;;;;5.20;2.10;;;;;;;4.36;57.54;97449.37;1769154;81;21258;-75
2021/05/04 03:18:28;;;;;;;4.87;2.30;;;;;;;4.44;57.36;97446.36;1769195;81;21166;-75
2021/05/04 03:20:56;;;;;;;5.12;2.70;;;;;;;4.52;57.24;97446.81;1769443;81;21166;-75
2021/05/04 03:23:24;;;;;;;3.47;2.33;;;;;;;4.59;56.93;97451.27;1769568;81;21128;-75
2021/05/04 03:25:51;;;;;;;4.92;2.50;;;;;;;4.62;56.61;97448.52;1769348;81;21290;-74
2021/05/04 03:28:19;;;;;;;2.80;2.17;;;;;;;4.65;56.39;97450.51;1800438;79;21132;-76
2021/05/04 03:30:47;;;;;;;5.25;2.05;;;;;;;4.72;56.15;97456.72;1808647;79;21123;-76
2021/05/04 03:33:15;;;;;;;6.65;2.50;;;;;;;4.72;55.93;97460.63;1803657;79;21096;-76
2021/05/04 03:35:43;;;;;;;4.67;2.40;;;;;;;4.74;55.90;97460.93;1789993;79;21119;-76
2021/05/04 03:38:10;;;;;;;8.75;2.33;;;;;;;4.75;55.64;97460.02;1791990;79;21112;-75
2021/05/04 03:40:39;;;;;;;5.30;2.10;;;;;;;4.77;55.56;97455.56;1814450;79;21618;-75
2021/05/04 03:43:06;;;;;;;5.75;2.30;;;;;;;4.81;55.47;97462.33;1814794;79;21100;-76
2021/05/04 03:45:34;;;;;;;4.00;2.45;;;;;;;4.83;55.30;97466.16;1814773;79;21129;-75
2021/05/04 03:48:01;;;;;;;5.17;2.45;;;;;;;4.86;55.28;97469.94;1814401;79;21143;-76
2021/05/04 03:50:29;;;;;;;7.30;2.22;;;;;;;4.90;55.13;97465.39;1814639;79;21136;-74
2021/05/04 03:52:59;;;;;;;9.58;2.40;;;;;;;4.93;55.06;97468.69;1807759;79;21119;-77
2021/05/04 03:55:26;;;;;;;4.45;2.27;;;;;;;4.98;54.97;97469.76;1814592;79;21132;-76
2021/05/04 03:57:53;;;;;;;4.72;2.17;;;;;;;5.02;54.85;97469.13;1812325;79;21104;-75
2021/05/04 04:00:22;;;;;;;3.95;2.37;;;;;;;5.05;54.77;97469.81;1808911;79;21134;-76
2021/05/04 04:02:49;;;;;;;3.27;2.27;;;;;;;5.09;54.75;97474.41;1787910;80;21131;-76
2021/05/04 04:05:17;;;;;;;4.10;2.60;;;;;;;5.15;54.96;97468.89;1763017;79;21112;-76
2021/05/04 04:07:44;;;;;;;9.48;2.90;;;;;;;5.23;54.60;97473.70;1815941;79;21567;-76
2021/05/04 04:10:12;;;;;;;7.12;2.95;;;;;;;5.28;54.88;97473.01;1817744;79;21609;-76
2021/05/04 04:12:40;;;;;;;3.50;2.50;;;;;;;5.36;54.57;97470.83;1817510;79;21132;-76
2021/05/04 04:15:10;;;;;;;9.33;2.62;;;;;;;5.51;54.64;97481.38;1817488;79;21144;-74
2021/05/04 04:17:37;;;;;;;6.60;2.33;;;;;;;5.84;54.63;97485.72;1818099;78;21519;-75
2021/05/04 04:20:08;;;;;;;10.23;3.35;;;;;;;6.30;54.61;97486.25;1815051;79;21155;-75
2021/05/04 04:22:38;;;;;;;6.90;2.20;;;;;;;6.85;53.31;97485.68;1817598;79;21155;-76
2021/05/04 04:25:08;;;;;;;3.42;2.55;;;;;;;7.43;53.90;97487.05;1817569;79;21132;-74
2021/05/04 04:27:35;;;;;;;10.93;2.60;;;;;;;8.53;51.96;97469.66;1817470;79;21586;-76
2021/05/04 04:30:04;;;;;;;4.40;2.40;;;;;;;8.53;51.96;97469.66;1817358;79;21127;-75
2021/05/04 04:32:31;;;;;;;4.50;2.27;;;;;;;9.14;51.14;97474.84;1817535;79;21123;-76
2021/05/04 04:34:59;;;;;;;6.30;2.80;;;;;;;9.66;50.39;97479.56;1779102;79;21120;-76
2021/05/04 04:37:29;;;;;;;4.53;2.27;;;;;;;10.23;49.11;97482.09;1788448;79;21573;-76
2021/05/04 04:39:57;;;;;;;10.82;2.65;;;;;;;10.79;48.08;97488.59;1803242;79;21542;-75
2021/05/04 04:42:24;;;;;;;8.18;2.35;;;;;;;11.35;47.91;97489.17;1799480;79;21091;-76
2021/05/04 04:44:51;;;;;;;3.75;2.40;;;;;;;11.87;47.11;97482.94;1771526;81;21135;-76
2021/05/04 04:47:19;;;;;;;4.80;2.12;;;;;;;12.30;46.43;97479.14;1806865;79;21151;-76
2021/05/04 04:49:47;;;;;;;9.35;2.35;;;;;;;12.89;45.08;97476.52;1806460;79;21541;-75
2021/05/04 04:52:15;;;;;;;5.50;2.22;;;;;;;13.40;44.35;97482.84;1785362;80;21104;-75
2021/05/04 04:54:42;;;;;;;5.15;2.37;;;;;;;13.91;43.77;97484.22;1784996;80;21568;-76
2021/05/04 04:57:09;;;;;;;3.55;2.12;;;;;;;14.41;42.07;97482.52;1786381;79;21167;-79
2021/05/04 04:59:37;;;;;;;4.28;2.42;;;;;;;14.86;41.68;97486.45;1817000;79;21116;-76
2021/05/04 05:02:05;;;;;;;4.42;2.58;;;;;;;15.22;39.81;97480.06;1791468;79;21127;-78
2021/05/04 05:04:32;;;;;;;10.55;2.87;;;;;;;15.73;38.04;97485.91;1768338;81;21139;-81
2021/05/04 05:07:05;;;;;;;4.65;2.30;;;;;;;16.17;36.83;97480.81;1746211;81;21562;-73
2021/05/04 05:09:28;;;;;;;5.00;2.80;;;;;;;16.59;36.20;97478.55;1759204;81;21167;-77
2021/05/04 05:11:55;;;;;;;7.30;2.77;;;;;;;17.05;35.23;97475.83;1798417;80;21155;-76
2021/05/04 05:14:23;;;;;;;6.55;2.40;;;;;;;17.55;34.59;97479.13;1807192;78;21098;-76
2021/05/04 05:16:50;;;;;;;8.35;2.87;;;;;;;18.03;33.55;97482.23;1813950;79;21151;-75
2021/05/04 05:19:18;;;;;;;6.22;2.33;;;;;;;18.49;33.30;97481.02;1814179;79;21842;-75
2021/05/04 05:21:45;;;;;;;9.20;2.35;;;;;;;18.88;32.35;97476.39;1813947;79;21185;-73
2021/05/04 05:24:13;;;;;;;7.47;2.00;;;;;;;19.06;32.54;97480.75;1814066;79;21130;-74
2021/05/04 05:26:41;;;;;;;8.13;2.25;;;;;;;19.11;31.79;97475.73;1813785;79;21146;-73
2021/05/04 05:29:08;;;;;;;3.37;2.00;;;;;;;19.39;30.79;97476.20;1813359;79;21186;-74
2021/05/04 05:31:36;;;;;;;8.63;2.27;;;;;;;19.33;31.09;97467.03;1812236;79;21145;-76
2021/05/04 05:34:04;;;;;;;4.83;2.45;;;;;;;19.48;30.16;97471.66;1813816;79;21735;-73
2021/05/04 05:36:31;;;;;;;11.95;2.62;;;;;;;19.69;30.42;97467.59;1813755;79;21552;-74
2021/05/04 05:38:59;;;;;;;6.50;2.25;;;;;;;19.91;30.01;97458.02;1814038;79;21165;-75
2021/05/04 05:41:27;;;;;;;7.58;2.40;;;;;;;20.29;29.12;97458.98;1814091;79;21145;-75
2021/05/04 05:43:55;;;;;;;6.22;2.02;;;;;;;20.68;28.91;97452.38;1813652;79;21099;-74
2021/05/04 05:46:22;;;;;;;4.95;1.87;;;;;;;20.81;27.90;97454.48;1813551;79;21522;-73
2021/05/04 05:48:50;;;;;;;5.40;2.52;;;;;;;21.14;26.92;97457.70;1814192;79;21136;-75
2021/05/04 05:51:19;;;;;;;6.92;2.42;;;;;;;21.40;26.81;97455.63;1814042;79;21234;-76
2021/05/04 05:53:46;;;;;;;4.50;2.42;;;;;;;21.56;26.22;97452.77;1813834;79;21611;-76
2021/05/04 05:56:13;;;;;;;6.33;2.55;;;;;;;21.80;25.66;97454.36;1814099;79;21139;-72
2021/05/04 05:58:41;;;;;;;3.87;2.35;;;;;;;21.89;26.24;97450.23;1813760;79;21146;-75
2021/05/04 06:01:08;;;;;;;6.92;2.67;;;;;;;21.98;26.06;97449.97;1807015;79;21161;-74
2021/05/04 06:03:36;;;;;;;4.80;2.10;;;;;;;22.20;25.59;97453.20;1791808;79;21150;-76
2021/05/04 06:06:04;;;;;;;4.80;2.52;;;;;;;22.33;25.51;97449.30;1803509;79;21601;-77
2021/05/04 06:08:31;;;;;;;5.17;2.17;;;;;;;22.40;25.52;97451.61;1812089;79;21148;-76
2021/05/04 06:10:59;;;;;;;6.37;2.20;;;;;;;22.51;24.83;97450.27;1817442;79;21148;-76
2021/05/04 06:13:26;;;;;;;4.90;2.25;;;;;;;22.54;24.16;97446.36;1816950;79;21301;-74
2021/05/04 06:15:54;;;;;;;11.38;2.45;;;;;;;22.44;24.09;97450.19;1816983;79;21132;-74
2021/05/04 06:18:21;;;;;;;5.22;2.15;;;;;;;22.59;24.42;97450.14;1817038;79;21120;-74
2021/05/04 06:20:48;;;;;;;3.37;2.30;;;;;;;22.84;23.96;97449.73;1816088;79;21175;-77
2021/05/04 06:23:16;;;;;;;4.50;2.20;;;;;;;22.97;23.26;97447.67;1816971;78;21100;-75
2021/05/04 06:25:43;;;;;;;6.58;2.72;;;;;;;23.03;22.91;97444.73;1817292;78;21132;-74
2021/05/04 06:28:10;;;;;;;5.75;3.33;;;;;;;23.23;23.31;97439.03;1816940;78;21163;-76
2021/05/04 06:30:39;;;;;;;11.80;2.90;;;;;;;23.38;22.63;97434.89;1817409;79;21250;-73
2021/05/04 06:33:10;;;;;;;6.03;3.17;;;;;;;23.41;22.69;97429.62;1789081;79;21567;-75
2021/05/04 06:35:41;;;;;;;9.30;3.30;;;;;;;23.57;21.97;97433.05;1794641;79;21119;-75
2021/05/04 06:38:12;;;;;;;4.62;3.20;;;;;;;23.71;22.17;97439.63;1797236;79;21160;-75
2021/05/04 06:40:46;;;;;;;5.37;2.98;;;;;;;23.97;21.87;97439.98;1793995;79;21138;-74
2021/05/04 06:43:14;;;;;;;6.20;3.15;;;;;;;24.00;21.46;97435.55;1771246;80;21579;-75
2021/05/04 06:45:41;;;;;;;6.00;3.00;;;;;;;23.59;21.37;97441.23;1771205;80;21131;-76
2021/05/04 06:48:09;;;;;;;6.37;2.92;;;;;;;23.78;21.88;97436.16;1743320;81;21162;-75
2021/05/04 06:50:37;;;;;;;3.75;2.33;;;;;;;23.80;21.25;97430.88;1785417;79;21262;-75
2021/05/04 06:53:05;;;;;;;3.37;2.30;;;;;;;23.76;18.69;97439.02;1811780;79;21545;-76
2021/05/04 06:55:32;;;;;;;3.87;2.30;;;;;;;22.88;19.24;97432.71;1812954;79;21144;-75
2021/05/04 06:57:59;;;;;;;7.15;2.77;;;;;;;22.12;20.71;97441.56;1817324;78;21140;-76
2021/05/04 07:00:29;;;;;;;5.30;2.92;;;;;;;21.50;19.73;97432.87;1814481;79;21160;-76
2021/05/04 07:02:56;;;;;;;5.85;3.20;;;;;;;20.69;19.83;97439.31;1801511;79;22186;-77
2021/05/04 07:05:23;;;;;;;6.22;3.00;;;;;;;19.69;20.62;97435.00;1801429;80;21125;-76
2021/05/04 07:07:51;;;;;;;5.85;2.72;;;;;;;19.48;21.73;97435.57;1800044;79;21128;-74
2021/05/04 07:10:18;;;;;;;8.03;2.45;;;;;;;19.84;21.72;97436.44;1805373;79;21676;-76
2021/05/04 07:12:46;;;;;;;5.22;2.87;;;;;;;20.21;21.89;97436.28;1813885;79;21119;-77
2021/05/04 07:15:14;;;;;;;7.35;3.02;;;;;;;20.45;21.96;97433.14;1813976;79;21129;-76
2021/05/04 07:17:41;;;;;;;6.17;2.98;;;;;;;20.66;21.58;97427.13;1813772;79;21255;-75
2021/05/04 07:20:11;;;;;;;4.30;2.75;;;;;;;20.94;21.92;97431.94;1762283;80;21164;-77
2021/05/04 07:22:38;;;;;;;6.35;3.10;;;;;;;21.23;22.07;97430.33;1813796;79;21148;-75
2021/05/04 07:25:06;;;;;;;4.70;2.83;;;;;;;21.61;21.81;97426.27;1813937;79;21147;-77
2021/05/04 07:27:34;;;;;;;4.87;3.12;;;;;;;21.89;21.57;97430.11;1813988;79;21566;-75
2021/05/04 07:30:02;;;;;;;4.22;3.05;;;;;;;22.08;21.75;97429.52;1813836;79;21129;-76
2021/05/04 07:32:29;;;;;;;4.22;2.92;;;;;;;22.37;21.35;97434.98;1814065;79;21147;-76
2021/05/04 07:34:57;;;;;;;3.90;2.70;;;;;;;22.51;21.14;97426.09;1813728;79;21155;-76
2021/05/04 07:37:24;;;;;;;5.95;2.25;;;;;;;22.65;20.76;97426.20;1813874;79;21546;-74
2021/05/04 07:39:51;;;;;;;22.67;3.22;;;;;;;22.60;20.21;97424.09;1789862;79;21169;-76
2021/05/04 07:42:19;;;;;;;7.25;2.60;;;;;;;22.32;20.54;97423.48;1781983;80;21584;-75
2021/05/04 07:44:47;;;;;;;5.10;2.70;;;;;;;22.30;20.55;97425.55;1781895;80;21238;-77
2021/05/04 07:47:15;;;;;;;6.53;2.58;;;;;;;22.40;20.64;97420.73;1782104;80;21130;-75
2021/05/04 07:49:44;;;;;;;3.17;2.33;;;;;;;21.96;20.51;97418.95;1782017;80;21165;-76
2021/05/04 07:52:12;;;;;;;7.45;3.00;;;;;;;22.02;21.14;97419.55;1787737;79;21151;-75
2021/05/04 07:54:42;;;;;;;3.40;2.20;;;;;;;22.13;21.08;97415.54;1813939;79;21207;-76
2021/05/04 07:57:11;;;;;;;4.30;2.40;;;;;;;22.36;20.36;97414.03;1814088;79;21152;-78
2021/05/04 07:59:39;;;;;;;4.35;2.10;;;;;;;22.57;21.04;97407.86;1813820;79;21163;-75
2021/05/04 08:02:06;;;;;;;4.72;2.20;;;;;;;22.52;20.89;97408.95;1814097;79;21141;-76
2021/05/04 08:04:34;;;;;;;3.60;2.45;;;;;;;22.38;20.75;97409.31;1805292;79;21699;-75
2021/05/04 08:07:04;;;;;;;3.72;2.33;;;;;;;22.40;20.63;97405.95;1801293;79;21116;-75
2021/05/04 08:09:30;;;;;;;4.28;2.55;;;;;;;22.28;20.89;97401.55;1781945;79;21121;-76
2021/05/04 08:11:58;;;;;;;6.08;2.77;;;;;;;22.26;20.93;97400.09;1813854;79;21137;-75
2021/05/04 08:14:25;;;;;;;3.62;2.50;;;;;;;22.06;20.72;97403.38;1813694;79;21127;-76
2021/05/04 08:16:54;;;;;;;4.62;2.95;;;;;;;21.99;20.76;97397.11;1814353;79;21126;-75
2021/05/04 08:19:22;;;;;;;3.87;2.35;;;;;;;21.93;20.97;97398.69;1813867;79;21144;-77
2021/05/04 08:21:50;;;;;;;2.75;2.25;;;;;;;21.89;20.85;97389.38;1813764;79;21109;-76
2021/05/04 08:24:18;;;;;;;3.50;2.25;;;;;;;21.84;20.76;97391.28;1813847;79;21116;-76
2021/05/04 08:26:46;;;;;;;5.60;2.40;;;;;;;21.85;20.91;97392.09;1813548;79;21549;-76
2021/05/04 08:29:13;;;;;;;2.83;2.30;;;;;;;21.87;20.73;97387.88;1807464;79;21193;-77
2021/05/04 08:31:41;;;;;;;2.77;2.10;;;;;;;21.51;20.67;97384.12;1766579;80;21139;-77
2021/05/04 08:34:10;;;;;;;2.92;2.20;;;;;;;21.22;20.79;97388.46;1799613;79;21158;-77
2021/05/04 08:36:39;;;;;;;4.70;2.27;;;;;;;21.10;21.11;97384.56;1802513;79;21601;-77
2021/05/04 08:39:06;;;;;;;3.72;2.25;;;;;;;21.05;20.99;97386.45;1770409;80;21128;-78
2021/05/04 08:41:35;;;;;;;3.20;2.30;;;;;;;20.99;20.75;97383.98;1798102;80;21195;-76
2021/05/04 08:44:03;;;;;;;4.53;2.17;;;;;;;21.01;20.94;97377.95;1767815;80;21135;-77
2021/05/04 08:46:34;;;;;;;5.15;2.17;;;;;;;20.94;21.02;97378.85;1785146;79;21556;-77
2021/05/04 08:49:04;;;;;;;3.87;2.37;;;;;;;20.75;21.13;97373.84;1782307;79;21537;-76
2021/05/04 08:51:33;;;;;;;2.95;1.85;;;;;;;20.55;20.81;97370.82;1803020;79;21139;-74
2021/05/04 08:54:03;;;;;;;2.92;2.00;;;;;;;20.31;20.51;97371.84;1803070;79;21105;-77
2021/05/04 08:56:31;;;;;;;4.12;1.77;;;;;;;19.99;21.39;97371.03;1798910;79;21100;-74
2021/05/04 08:58:59;;;;;;;2.90;1.92;;;;;;;19.83;21.68;97366.57;1798291;80;21131;-75
2021/05/04 09:01:26;;;;;;;4.92;2.10;;;;;;;19.84;21.48;97360.22;1795887;80;21152;-76
2021/05/04 09:03:58;;;;;;;2.98;2.00;;;;;;;19.82;21.51;97356.87;1768254;81;21554;-76
2021/05/04 09:06:41;;;;;;;5.85;2.10;;;;;;;19.78;21.68;97352.39;1768662;80;21151;-74
2021/05/04 09:09:21;;;;;;;2.83;1.62;;;;;;;19.75;21.70;97354.09;1762955;80;21143;-77
2021/05/04 09:17:16;;;;;;;7.75;2.20;;;;;;;18.82;21.24;97357.72;1730902;83;21139;-76
2021/05/04 09:20:06;;;;;;;3.95;2.05;;;;;;;18.12;21.60;97367.05;1724410;83;21139;-75
2021/05/04 09:22:41;;;;;;;3.08;1.40;;;;;;;17.58;22.30;97360.73;1705733;83;21152;-77
2021/05/04 09:25:36;;;;;;;4.05;1.90;;;;;;;17.06;22.51;97355.00;1702709;84;21171;-77
2021/05/04 09:28:06;;;;;;;3.10;2.08;;;;;;;16.44;23.39;97346.08;1732811;83;21126;-74
2021/05/04 09:30:35;;;;;;;5.20;1.77;;;;;;;16.35;23.87;97350.48;1717114;83;21183;-76
2021/05/04 09:33:10;;;;;;;2.77;1.90;;;;;;;16.34;23.94;97338.17;1706738;83;21132;-79
2021/05/04 09:35:38;;;;;;;4.83;1.60;;;;;;;16.38;24.26;97338.70;1715151;83;21119;-77
2021/05/04 09:38:10;;;;;;;4.20;1.60;;;;;;;16.29;24.19;97340.95;1709063;83;21146;-75
2021/05/04 09:43:23;;;;;;;4.08;1.80;;;;;;;16.51;25.24;97333.00;1811534;79;23393;-76
2021/05/04 09:45:57;;;;;;;2.80;1.60;;;;;;;16.57;24.71;97329.70;1774799;80;21153;-75
2021/05/04 09:48:33;;;;;;;3.58;1.87;;;;;;;16.68;24.83;97333.45;1718278;83;21132;-74
2021/05/04 09:51:15;;;;;;;2.50;1.90;;;;;;;16.79;25.00;97332.34;1734605;83;21627;-74
2021/05/04 09:56:34;;;;;;;3.72;2.33;;;;;;;16.83;24.71;97331.53;1720317;83;21124;-76
2021/05/04 09:59:02;;;;;;;4.35;1.65;;;;;;;16.80;24.60;97322.52;1735118;81;21157;-76
2021/05/04 10:01:31;;;;;;;3.05;1.77;;;;;;;16.70;25.04;97329.30;1682648;84;21170;-75
2021/05/04 10:04:00;;;;;;;2.67;1.40;;;;;;;16.75;25.26;97330.16;1727348;83;21310;-74
2021/05/04 10:06:28;;;;;;;5.05;1.90;;;;;;;16.82;25.27;97324.53;1726711;83;21120;-76
2021/05/04 10:08:56;;;;;;;3.47;1.90;;;;;;;16.91;25.39;97322.26;1703794;83;21195;-74
2021/05/04 10:11:24;;;;;;;7.70;2.25;;;;;;;17.03;25.32;97313.52;1679978;83;21570;-74
2021/05/04 10:13:56;;;;;;;3.42;1.57;;;;;;;17.13;25.11;97312.09;1728531;83;21160;-75
2021/05/04 10:16:29;;;;;;;3.85;1.77;;;;;;;17.15;25.02;97304.27;1727786;83;21727;-76
2021/05/04 10:19:02;;;;;;;3.65;1.50;;;;;;;17.17;25.03;97307.62;1727392;83;21165;-76
2021/05/04 10:21:31;;;;;;;5.20;1.60;;;;;;;17.10;24.90;97291.95;1728741;83;21586;-76
2021/05/04 10:23:58;;;;;;;2.98;1.60;;;;;;;17.02;25.17;97291.91;1716541;83;21196;-75
2021/05/04 10:26:29;;;;;;;2.00;1.40;;;;;;;16.97;24.96;97281.73;1707865;83;21598;-76
2021/05/04 10:29:01;;;;;;;16.42;2.85;;;;;;;16.95;24.99;97284.20;1705142;82;21172;-77
2021/05/04 10:31:44;;;;;;;2.22;1.45;;;;;;;17.00;25.28;97272.59;1728105;83;21292;-74
2021/05/04 10:34:28;;;;;;;2.52;1.50;;;;;;;17.02;24.67;97271.94;1724824;83;21594;-75
2021/05/04 10:37:10;;;;;;;1.80;1.25;;;;;;;16.92;24.76;97264.03;1727170;83;21165;-77
2021/05/04 10:39:43;;;;;;;6.45;1.60;;;;;;;16.92;24.65;97264.03;1720509;81;21609;-76
2021/05/04 10:42:35;;;;;;;5.03;1.72;;;;;;;16.79;24.59;97261.81;1702161;82;21233;-75
2021/05/04 10:45:10;;;;;;;2.10;1.60;;;;;;;16.79;24.95;97260.98;1716958;82;21144;-75
2021/05/04 10:47:46;;;;;;;5.85;1.80;;;;;;;16.86;24.91;97252.19;1715570;82;21570;-73
2021/05/04 10:50:23;;;;;;;6.85;1.80;;;;;;;16.85;24.74;97255.02;1708466;82;21124;-76
2021/05/04 10:52:58;;;;;;;2.02;1.15;;;;;;;16.92;25.10;97241.91;1729269;82;21136;-75
2021/05/04 10:55:56;;;;;;;3.08;1.52;;;;;;;16.96;24.75;97245.45;1720138;82;21132;-76
2021/05/04 10:58:31;;;;;;;3.67;2.08;;;;;;;16.89;24.71;97242.22;1712942;81;21597;-76
2021/05/04 11:01:03;;;;;;;2.67;1.67;;;;;;;16.93;24.87;97235.12;1704141;82;21623;-76
2021/05/04 11:03:37;;;;;;;3.00;1.50;;;;;;;17.03;24.94;97233.64;1715484;82;21549;-73
2021/05/04 11:06:11;;;;;;;2.98;1.40;;;;;;;17.06;24.58;97232.00;1736472;82;21208;-74
2021/05/04 11:08:47;;;;;;;3.75;1.60;;;;;;;17.04;24.12;97222.52;1737836;82;21618;-75
2021/05/04 11:11:33;;;;;;;1.75;1.42;;;;;;;17.10;25.19;97225.38;1705997;82;21124;-75
2021/05/04 11:14:03;;;;;;;1.82;1.15;;;;;;;17.19;25.00;97217.41;1713214;82;21168;-73
2021/05/04 11:16:47;;;;;;;2.27;1.50;;;;;;;17.18;25.10;97216.55;1744628;81;21547;-73
2021/05/04 11:19:32;;;;;;;2.45;1.70;;;;;;;17.25;25.16;97206.09;1719300;82;21127;-76
2021/05/04 11:22:10;;;;;;;2.95;1.45;;;;;;;17.33;24.95;97212.28;1710401;82;21153;-74
2021/05/04 11:24:46;;;;;;;2.37;1.37;;;;;;;17.38;24.68;97202.47;1745498;82;21149;-74
2021/05/04 11:27:18;;;;;;;2.57;1.30;;;;;;;17.33;24.80;97200.78;1718712;81;21155;-75
2021/05/04 11:29:49;;;;;;;3.22;1.32;;;;;;;17.39;24.92;97200.14;1719052;82;21274;-79
2021/05/04 11:32:40;;;;;;;2.00;1.50;;;;;;;17.51;25.03;97204.66;1714321;82;21563;-73
2021/05/04 11:35:10;;;;;;;3.40;1.55;;;;;;;17.61;25.05;97189.82;1701976;84;21671;-74
2021/05/04 11:37:43;;;;;;;2.58;1.47;;;;;;;17.69;25.07;97182.34;1724203;82;21210;-79
2021/05/04 11:40:24;;;;;;;3.33;1.42;;;;;;;17.76;24.91;97184.19;1687248;85;21200;-79
2021/05/04 11:43:02;;;;;;;2.52;1.52;;;;;;;17.75;24.34;97186.52;1717427;81;21122;-74
2021/05/04 11:45:32;;;;;;;4.47;1.45;;;;;;;17.67;24.43;97179.85;1738435;82;21313;-76
2021/05/04 11:48:05;;;;;;;2.35;0.90;;;;;;;17.67;24.36;97180.33;1718840;81;21143;-73
2021/05/04 11:50:44;;;;;;;4.22;1.72;;;;;;;17.61;23.28;97189.34;1709260;81;21159;-73
2021/05/04 11:53:17;;;;;;;2.30;1.50;;;;;;;17.40;24.13;97171.66;1763484;81;21593;-79
2021/05/04 11:55:48;;;;;;;3.83;1.62;;;;;;;17.44;24.48;97169.83;1748137;82;21128;-76
2021/05/04 11:58:22;;;;;;;2.25;1.60;;;;;;;17.58;24.36;97163.02;1748488;82;21198;-73
2021/05/04 12:01:03;;;;;;;2.02;1.45;;;;;;;17.70;24.06;97166.17;1767008;81;21199;-75
2021/05/04 12:03:32;;;;;;;3.75;1.85;;;;;;;17.56;23.70;97162.34;1748677;82;21601;-74